createdAt,value
2022-08-05T00:00:25.975Z,718.49
2022-08-05T00:01:27.705Z,718.55
2022-08-05T00:02:25.122Z,718.61
2022-08-05T00:03:25.054Z,718.65
2022-08-05T00:04:25.024Z,718.82
2022-08-05T00:05:27.246Z,718.79
2022-08-05T00:06:30.698Z,718.67
2022-08-05T00:07:59.299Z,718.67
2022-08-05T00:08:34.786Z,718.62
2022-08-05T00:09:24.975Z,718.64
2022-08-05T00:10:27.239Z,718.67
2022-08-05T00:11:30.598Z,718.65
2022-08-05T00:12:24.940Z,718.63
2022-08-05T00:13:38.032Z,718.60
2022-08-05T00:14:27.772Z,718.61
2022-08-05T00:15:54.912Z,718.52
2022-08-05T00:16:35.548Z,718.55
2022-08-05T00:17:25.810Z,718.67
2022-08-05T00:18:24.883Z,718.82
2022-08-05T00:19:33.134Z,718.83
2022-08-05T00:20:28.944Z,718.92
2022-08-05T00:21:24.850Z,718.94
2022-08-05T00:22:24.843Z,719.01
2022-08-05T00:23:44.731Z,719.21
2022-08-05T00:24:30.671Z,719.14
2022-08-05T00:25:24.788Z,719.07
2022-08-05T00:26:24.788Z,719.03
2022-08-05T00:27:28.501Z,719.08
2022-08-05T00:28:29.718Z,719.04
2022-08-05T00:29:25.371Z,719.01
2022-08-05T00:30:29.052Z,719.13
2022-08-05T00:31:41.393Z,719.35
2022-08-05T00:32:25.859Z,719.34
2022-08-05T00:34:54.549Z,719.35
2022-08-05T00:34:56.489Z,719.66
2022-08-05T00:35:24.697Z,719.77
2022-08-05T00:37:10.519Z,719.91
2022-08-05T00:37:24.951Z,719.73
2022-08-05T00:38:28.900Z,719.69
2022-08-05T00:39:24.704Z,719.64
2022-08-05T00:40:26.801Z,719.62
2022-08-05T00:41:24.629Z,719.65
2022-08-05T00:42:31.778Z,719.64
2022-08-05T00:43:24.594Z,719.73
2022-08-05T00:44:30.856Z,719.85
2022-08-05T00:45:28.272Z,719.98
2022-08-05T00:47:57.187Z,723.05
2022-08-05T00:48:35.052Z,723.90
2022-08-05T00:49:51.020Z,725.01
2022-08-05T00:50:35.038Z,726.34
2022-08-05T00:51:50.270Z,726.59
2022-08-05T00:52:34.970Z,727.11
2022-08-05T00:54:00.841Z,727.81
2022-08-05T00:54:34.952Z,728.32
2022-08-05T00:55:42.883Z,729.10
2022-08-05T00:56:34.940Z,730.06
2022-08-05T00:57:38.208Z,730.23
2022-08-05T00:58:34.908Z,730.24
2022-08-05T00:59:44.136Z,730.68
2022-08-05T01:00:34.945Z,730.82
2022-08-05T01:01:42.516Z,730.77
2022-08-05T01:02:34.866Z,731.17
2022-08-05T01:03:34.849Z,731.22
2022-08-05T01:04:34.837Z,731.37
2022-08-05T01:05:34.850Z,731.40
2022-08-05T01:06:34.829Z,731.62
2022-08-05T01:07:34.814Z,731.88
2022-08-05T01:08:43.160Z,731.99
2022-08-05T01:09:34.785Z,732.14
2022-08-05T01:10:34.782Z,732.18
2022-08-05T01:11:37.248Z,732.00
2022-08-05T01:12:34.752Z,731.75
2022-08-05T01:13:57.323Z,731.86
2022-08-05T01:14:34.731Z,731.69
2022-08-05T01:15:35.803Z,731.85
2022-08-05T01:16:34.719Z,731.77
2022-08-05T01:17:40.266Z,732.11
2022-08-05T01:18:34.686Z,731.86
2022-08-05T01:20:02.001Z,731.70
2022-08-05T01:20:34.678Z,732.28
2022-08-05T01:21:37.893Z,732.98
2022-08-05T01:22:34.649Z,732.97
2022-08-05T01:23:35.155Z,732.94
2022-08-05T01:24:34.618Z,733.10
2022-08-05T01:25:40.999Z,733.61
2022-08-05T01:26:34.597Z,733.75
2022-08-05T01:27:34.646Z,733.87
2022-08-05T01:28:34.923Z,734.35
2022-08-05T01:29:34.949Z,735.05
2022-08-05T01:30:35.248Z,735.07
2022-08-05T01:31:42.545Z,735.35
2022-08-05T01:32:34.545Z,735.33
2022-08-05T01:33:35.459Z,735.69
2022-08-05T01:34:35.790Z,735.90
2022-08-05T01:35:50.957Z,735.94
2022-08-05T01:36:34.513Z,735.95
2022-08-05T01:37:34.471Z,736.01
2022-08-05T01:38:34.501Z,736.20
2022-08-05T01:39:46.355Z,736.39
2022-08-05T01:40:34.439Z,736.35
2022-08-05T01:41:34.431Z,736.63
2022-08-05T01:42:34.416Z,736.64
2022-08-05T01:43:34.415Z,736.56
2022-08-05T01:44:35.507Z,736.68
2022-08-05T01:45:35.038Z,736.60
2022-08-05T01:46:42.668Z,736.71
2022-08-05T01:47:39.709Z,737.01
2022-08-05T01:48:34.365Z,737.38
2022-08-05T01:50:00.196Z,737.57
2022-08-05T01:50:34.327Z,737.65
2022-08-05T01:51:34.322Z,737.96
2022-08-05T01:52:34.356Z,738.18
2022-08-05T01:53:57.516Z,738.21
2022-08-05T01:54:34.281Z,738.15
2022-08-05T01:55:36.049Z,737.99
2022-08-05T01:58:10.131Z,738.08
2022-08-05T01:58:11.257Z,737.96
2022-08-05T01:58:40.684Z,737.84
2022-08-05T01:59:34.230Z,737.61
2022-08-05T02:00:34.233Z,737.90
2022-08-05T02:01:39.786Z,738.00
2022-08-05T02:02:34.239Z,738.04
2022-08-05T02:03:34.452Z,738.03
2022-08-05T02:04:34.185Z,737.86
2022-08-05T02:05:35.999Z,737.86
2022-08-05T02:06:38.197Z,737.53
2022-08-05T02:07:34.177Z,737.29
2022-08-05T02:08:40.499Z,737.11
2022-08-05T02:09:34.118Z,737.01
2022-08-05T02:10:34.108Z,737.24
2022-08-05T02:11:34.214Z,737.28
2022-08-05T02:12:34.102Z,737.12
2022-08-05T02:13:48.710Z,737.09
2022-08-05T02:14:34.065Z,736.93
2022-08-05T02:15:34.149Z,736.48
2022-08-05T02:16:34.040Z,736.32
2022-08-05T02:18:31.306Z,736.10
2022-08-05T02:18:34.674Z,736.03
2022-08-05T02:19:34.469Z,736.17
2022-08-05T02:20:39.079Z,736.28
2022-08-05T02:21:40.278Z,736.51
2022-08-05T02:22:33.973Z,736.88
2022-08-05T02:23:33.962Z,736.89
2022-08-05T02:24:33.963Z,736.86
2022-08-05T02:25:33.949Z,736.81
2022-08-05T02:26:33.927Z,736.96
2022-08-05T02:27:58.532Z,737.05
2022-08-05T02:28:38.152Z,737.22
2022-08-05T02:29:58.388Z,737.43
2022-08-05T02:30:34.490Z,737.66
2022-08-05T02:31:34.582Z,737.62
2022-08-05T02:32:33.864Z,738.01
2022-08-05T02:33:35.912Z,737.99
2022-08-05T02:34:33.837Z,738.24
2022-08-05T02:35:38.103Z,738.29
2022-08-05T02:36:33.831Z,738.31
2022-08-05T02:37:33.803Z,738.34
2022-08-05T02:38:35.449Z,738.19
2022-08-05T02:39:33.834Z,738.20
2022-08-05T02:40:33.773Z,738.10
2022-08-05T02:41:43.286Z,738.21
2022-08-05T02:42:36.075Z,738.31
2022-08-05T02:43:34.589Z,738.28
2022-08-05T02:44:33.744Z,738.19
2022-08-05T02:45:52.239Z,737.98
2022-08-05T02:46:33.711Z,738.06
2022-08-05T02:48:43.534Z,738.89
2022-08-05T02:49:43.642Z,738.87
2022-08-05T02:50:44.323Z,739.10
2022-08-05T02:52:03.732Z,739.51
2022-08-05T02:52:43.605Z,739.97
2022-08-05T02:53:43.605Z,740.19
2022-08-05T02:54:50.754Z,740.31
2022-08-05T02:55:54.399Z,740.59
2022-08-05T02:56:43.560Z,740.89
2022-08-05T02:58:09.459Z,740.97
2022-08-05T02:58:43.928Z,741.08
2022-08-05T02:59:50.463Z,741.27
2022-08-05T03:00:45.959Z,741.57
2022-08-05T03:01:43.683Z,742.02
2022-08-05T03:02:43.494Z,742.08
2022-08-05T03:04:11.790Z,742.03
2022-08-05T03:04:43.471Z,742.23
2022-08-05T03:06:56.225Z,742.68
2022-08-05T03:06:56.814Z,742.45
2022-08-05T03:08:07.165Z,742.97
2022-08-05T03:08:43.425Z,743.43
2022-08-05T03:09:51.497Z,743.59
2022-08-05T03:10:43.409Z,743.92
2022-08-05T03:11:56.350Z,744.24
2022-08-05T03:12:43.380Z,744.39
2022-08-05T03:13:52.036Z,744.61
2022-08-05T03:14:45.942Z,744.86
2022-08-05T03:15:43.358Z,744.89
2022-08-05T03:16:43.355Z,745.03
2022-08-05T03:17:44.825Z,745.32
2022-08-05T03:18:43.359Z,745.59
2022-08-05T03:19:45.612Z,745.95
2022-08-05T03:20:48.586Z,746.14
2022-08-05T03:21:49.554Z,746.24
2022-08-05T03:22:46.812Z,746.52
2022-08-05T03:23:43.256Z,746.51
2022-08-05T03:24:43.244Z,746.70
2022-08-05T03:26:04.546Z,746.94
2022-08-05T03:26:43.249Z,746.89
2022-08-05T03:27:59.208Z,747.14
2022-08-05T03:28:43.234Z,747.30
2022-08-05T03:29:45.748Z,747.35
2022-08-05T03:30:43.182Z,747.49
2022-08-05T03:31:56.759Z,747.61
2022-08-05T03:32:43.171Z,747.65
2022-08-05T03:33:52.750Z,747.76
2022-08-05T03:34:50.382Z,748.19
2022-08-05T03:35:43.139Z,748.28
2022-08-05T03:36:43.112Z,748.25
2022-08-05T03:37:46.721Z,748.35
2022-08-05T03:38:43.234Z,748.32
2022-08-05T03:39:47.402Z,748.25
2022-08-05T03:40:45.077Z,748.30
2022-08-05T03:41:43.057Z,748.26
2022-08-05T03:42:52.110Z,748.20
2022-08-05T03:44:08.730Z,748.07
2022-08-05T03:44:43.642Z,748.05
2022-08-05T03:45:57.315Z,748.22
2022-08-05T03:46:43.013Z,747.91
2022-08-05T03:47:42.996Z,747.61
2022-08-05T03:48:43.010Z,747.68
2022-08-05T03:49:51.417Z,747.65
2022-08-05T03:50:42.967Z,747.63
2022-08-05T03:52:50.354Z,747.84
2022-08-05T03:55:00.376Z,747.78
2022-08-05T03:55:49.760Z,747.74
2022-08-05T03:56:00.949Z,747.69
2022-08-05T03:56:06.097Z,747.65
2022-08-05T03:56:42.893Z,747.66
2022-08-05T03:57:43.020Z,747.74
2022-08-05T03:58:42.903Z,747.68
2022-08-05T03:59:47.153Z,747.47
2022-08-05T04:00:44.316Z,747.28
2022-08-05T04:01:42.938Z,747.03
2022-08-05T04:02:51.888Z,747.25
2022-08-05T04:04:08.593Z,746.94
2022-08-05T04:04:42.800Z,746.92
2022-08-05T04:05:42.794Z,746.95
2022-08-05T04:06:47.828Z,746.89
2022-08-05T04:07:53.063Z,746.76
2022-08-05T04:08:42.756Z,746.94
2022-08-05T04:09:53.623Z,747.04
2022-08-05T04:10:42.743Z,746.83
2022-08-05T04:11:42.724Z,746.59
2022-08-05T04:13:50.017Z,746.37
2022-08-05T04:14:42.717Z,745.98
2022-08-05T04:16:02.973Z,745.96
2022-08-05T04:16:42.666Z,746.16
2022-08-05T04:17:56.316Z,746.02
2022-08-05T04:18:42.690Z,745.68
2022-08-05T04:19:42.636Z,745.84
2022-08-05T04:20:42.649Z,745.79
2022-08-05T04:22:10.006Z,745.55
2022-08-05T04:22:42.599Z,745.53
2022-08-05T04:24:05.977Z,745.63
2022-08-05T04:24:43.910Z,745.40
2022-08-05T04:25:57.139Z,745.63
2022-08-05T04:26:42.569Z,745.51
2022-08-05T04:27:57.430Z,745.37
2022-08-05T04:28:51.034Z,746.47
2022-08-05T04:29:42.514Z,747.60
2022-08-05T04:30:42.890Z,748.21
2022-08-05T04:31:42.956Z,748.94
2022-08-05T04:32:42.492Z,749.43
2022-08-05T04:34:17.594Z,750.74
2022-08-05T04:34:43.555Z,751.07
2022-08-05T04:36:11.270Z,751.39
2022-08-05T04:36:49.808Z,751.48
2022-08-05T04:37:42.427Z,752.22
2022-08-05T04:38:42.418Z,752.77
2022-08-05T04:39:42.505Z,752.70
2022-08-05T04:40:47.858Z,752.42
2022-08-05T04:41:42.391Z,752.49
2022-08-05T04:42:42.390Z,752.38
2022-08-05T04:43:48.171Z,752.52
2022-08-05T04:44:42.374Z,752.64
2022-08-05T04:45:48.337Z,752.70
2022-08-05T04:46:42.331Z,752.62
2022-08-05T04:47:42.907Z,752.86
2022-08-05T04:50:01.066Z,753.48
2022-08-05T04:50:37.609Z,753.23
2022-08-05T04:51:32.324Z,753.30
2022-08-05T04:52:33.400Z,753.27
2022-08-05T04:53:33.636Z,753.47
2022-08-05T04:54:32.261Z,753.45
2022-08-05T04:56:14.486Z,753.57
2022-08-05T04:56:37.103Z,753.21
2022-08-05T04:57:37.167Z,752.63
2022-08-05T04:58:32.215Z,753.21
2022-08-05T04:59:40.604Z,752.98
2022-08-05T05:00:32.249Z,752.75
2022-08-05T05:01:50.356Z,752.56
2022-08-05T05:02:37.314Z,752.32
2022-08-05T05:03:41.878Z,752.86
2022-08-05T05:04:32.158Z,753.31
2022-08-05T05:05:32.149Z,753.24
2022-08-05T05:06:40.779Z,752.73
2022-08-05T05:07:35.311Z,752.40
2022-08-05T05:08:32.108Z,752.17
2022-08-05T05:09:32.095Z,752.21
2022-08-05T05:10:33.399Z,751.81
2022-08-05T05:11:41.398Z,751.85
2022-08-05T05:12:32.100Z,751.66
2022-08-05T05:13:32.387Z,751.55
2022-08-05T05:14:32.373Z,751.57
2022-08-05T05:15:56.841Z,751.42
2022-08-05T05:16:32.020Z,751.22
2022-08-05T05:17:57.100Z,751.26
2022-08-05T05:18:34.107Z,751.37
2022-08-05T05:19:37.117Z,751.11
2022-08-05T05:20:31.985Z,750.78
2022-08-05T05:21:33.133Z,750.65
2022-08-05T05:22:32.000Z,750.26
2022-08-05T05:24:01.995Z,750.27
2022-08-05T05:24:56.315Z,749.96
2022-08-05T05:25:40.493Z,750.17
2022-08-05T05:26:32.919Z,750.15
2022-08-05T05:27:45.716Z,750.44
2022-08-05T05:28:34.275Z,750.43
2022-08-05T05:29:40.893Z,749.82
2022-08-05T05:30:33.484Z,749.41
2022-08-05T05:32:31.868Z,748.71
2022-08-05T05:33:31.825Z,748.37
2022-08-05T05:34:31.821Z,748.33
2022-08-05T05:35:34.414Z,748.44
2022-08-05T05:36:31.809Z,748.09
2022-08-05T05:37:53.717Z,748.59
2022-08-05T05:38:31.797Z,748.52
2022-08-05T05:39:35.178Z,748.17
2022-08-05T05:40:32.097Z,747.76
2022-08-05T05:41:40.810Z,747.78
2022-08-05T05:42:31.741Z,747.40
2022-08-05T05:43:56.792Z,747.44
2022-08-05T05:44:36.898Z,747.18
2022-08-05T05:45:31.699Z,747.50
2022-08-05T05:46:31.687Z,747.70
2022-08-05T05:48:05.553Z,747.13
2022-08-05T05:48:31.679Z,746.31
2022-08-05T05:49:31.651Z,745.65
2022-08-05T05:50:31.639Z,745.78
2022-08-05T05:51:50.697Z,745.59
2022-08-05T05:52:34.730Z,744.92
2022-08-05T05:53:31.627Z,745.60
2022-08-05T05:54:50.473Z,746.38
2022-08-05T05:55:51.605Z,746.28
2022-08-05T05:56:34.461Z,746.63
2022-08-05T05:57:51.983Z,746.21
2022-08-05T05:58:32.505Z,745.57
2022-08-05T05:59:31.569Z,745.59
2022-08-05T06:00:34.216Z,745.89
2022-08-05T06:01:38.182Z,746.33
2022-08-05T06:02:36.866Z,746.06
2022-08-05T06:03:54.041Z,745.74
2022-08-05T06:04:33.757Z,745.73
2022-08-05T06:05:31.938Z,745.62
2022-08-05T06:06:33.246Z,745.43
2022-08-05T06:07:41.301Z,745.49
2022-08-05T06:08:32.962Z,745.40
2022-08-05T06:09:50.198Z,745.58
2022-08-05T06:10:36.722Z,745.78
2022-08-05T06:11:31.405Z,745.75
2022-08-05T06:12:31.444Z,745.45
2022-08-05T06:13:40.585Z,745.16
2022-08-05T06:14:31.418Z,745.34
2022-08-05T06:16:30.437Z,745.25
2022-08-05T06:16:36.608Z,745.27
2022-08-05T06:17:31.359Z,744.73
2022-08-05T06:18:31.830Z,744.05
2022-08-05T06:19:34.524Z,744.14
2022-08-05T06:20:31.321Z,743.99
2022-08-05T06:21:36.055Z,745.04
2022-08-05T06:22:33.662Z,745.03
2022-08-05T06:23:43.477Z,745.00
2022-08-05T06:24:31.262Z,744.55
2022-08-05T06:26:13.360Z,744.43
2022-08-05T06:26:33.791Z,744.59
2022-08-05T06:28:11.848Z,744.08
2022-08-05T06:28:31.233Z,743.59
2022-08-05T06:29:49.348Z,743.39
2022-08-05T06:30:31.201Z,743.87
2022-08-05T06:31:32.104Z,743.89
2022-08-05T06:32:31.176Z,744.05
2022-08-05T06:33:33.389Z,743.91
2022-08-05T06:34:31.149Z,743.83
2022-08-05T06:36:03.715Z,744.41
2022-08-05T06:36:53.698Z,744.48
2022-08-05T06:37:55.856Z,745.30
2022-08-05T06:38:36.721Z,745.46
2022-08-05T06:39:31.355Z,744.15
2022-08-05T06:40:32.503Z,742.99
2022-08-05T06:41:31.078Z,742.55
2022-08-05T06:42:31.067Z,743.41
2022-08-05T06:43:58.516Z,742.72
2022-08-05T06:44:31.055Z,742.35
2022-08-05T06:45:44.862Z,742.79
2022-08-05T06:46:31.022Z,742.37
2022-08-05T06:48:37.316Z,743.12
2022-08-05T06:48:53.641Z,742.89
2022-08-05T06:50:39.959Z,742.83
2022-08-05T06:51:41.024Z,743.75
2022-08-05T06:52:40.925Z,744.62
2022-08-05T06:53:40.918Z,745.17
2022-08-05T06:54:40.925Z,744.31
2022-08-05T06:55:42.052Z,744.14
2022-08-05T06:56:40.878Z,743.53
2022-08-05T06:58:03.493Z,743.18
2022-08-05T06:58:41.225Z,742.76
2022-08-05T06:59:42.389Z,742.63
2022-08-05T07:00:41.145Z,742.51
2022-08-05T07:01:42.424Z,742.31
2022-08-05T07:02:40.819Z,742.67
2022-08-05T07:03:40.817Z,743.04
2022-08-05T07:04:40.790Z,743.77
2022-08-05T07:05:41.282Z,742.83
2022-08-05T07:06:40.765Z,742.18
2022-08-05T07:07:43.911Z,742.00
2022-08-05T07:08:41.960Z,742.11
2022-08-05T07:09:40.750Z,742.11
2022-08-05T07:10:53.279Z,742.27
2022-08-05T07:11:40.709Z,742.77
2022-08-05T07:12:40.697Z,741.91
2022-08-05T07:13:58.179Z,741.53
2022-08-05T07:14:40.680Z,741.96
2022-08-05T07:16:00.928Z,743.05
2022-08-05T07:18:00.014Z,742.94
2022-08-05T07:18:00.995Z,743.57
2022-08-05T07:18:40.652Z,742.50
2022-08-05T07:20:31.380Z,741.72
2022-08-05T07:20:40.608Z,741.05
2022-08-05T07:22:00.082Z,740.27
2022-08-05T07:22:42.026Z,740.77
2022-08-05T07:23:50.077Z,740.40
2022-08-05T07:24:44.072Z,741.23
2022-08-05T07:25:56.501Z,741.08
2022-08-05T07:26:40.544Z,740.66
2022-08-05T07:27:57.456Z,740.43
2022-08-05T07:28:40.523Z,741.08
2022-08-05T07:30:25.347Z,742.76
2022-08-05T07:30:40.494Z,743.64
2022-08-05T07:31:54.664Z,743.16
2022-08-05T07:32:40.505Z,744.13
2022-08-05T07:33:40.463Z,743.63
2022-08-05T07:34:42.249Z,743.25
2022-08-05T07:36:01.558Z,743.91
2022-08-05T07:36:40.439Z,744.43
2022-08-05T07:37:40.433Z,745.36
2022-08-05T07:38:43.242Z,746.39
2022-08-05T07:40:04.520Z,746.25
2022-08-05T07:40:44.530Z,745.81
2022-08-05T07:42:09.548Z,745.29
2022-08-05T07:42:40.365Z,745.73
2022-08-05T07:43:40.356Z,746.37
2022-08-05T07:44:40.346Z,746.60
2022-08-05T07:45:57.493Z,747.28
2022-08-05T07:46:40.339Z,747.34
2022-08-05T07:47:42.190Z,747.44
2022-08-05T07:49:02.656Z,747.81
2022-08-05T07:49:43.389Z,747.78
2022-08-05T07:50:40.281Z,747.35
2022-08-05T07:51:53.490Z,747.62
2022-08-05T07:52:40.256Z,746.71
2022-08-05T07:53:49.898Z,747.35
2022-08-05T07:54:41.414Z,747.37
2022-08-05T07:56:04.918Z,746.97
2022-08-05T07:57:13.531Z,746.34
2022-08-05T07:57:51.307Z,746.54
2022-08-05T07:58:57.703Z,747.10
2022-08-05T07:59:41.133Z,746.48
2022-08-05T08:00:40.271Z,745.99
2022-08-05T08:01:51.817Z,746.69
2022-08-05T08:03:14.638Z,746.49
2022-08-05T08:03:44.559Z,746.47
2022-08-05T08:04:40.120Z,746.28
2022-08-05T08:05:42.652Z,746.72
2022-08-05T08:06:40.101Z,746.97
2022-08-05T08:07:59.921Z,747.82
2022-08-05T08:08:40.079Z,747.33
2022-08-05T08:09:40.070Z,746.43
2022-08-05T08:10:40.073Z,746.88
2022-08-05T08:11:47.810Z,747.68
2022-08-05T08:12:49.563Z,747.38
2022-08-05T08:13:42.960Z,746.21
2022-08-05T08:14:40.849Z,744.88
2022-08-05T08:16:35.318Z,745.02
2022-08-05T08:16:50.889Z,746.05
2022-08-05T08:17:43.977Z,746.65
2022-08-05T08:18:39.976Z,746.34
2022-08-05T08:20:22.360Z,746.24
2022-08-05T08:20:44.466Z,746.51
2022-08-05T08:21:39.953Z,746.14
2022-08-05T08:22:39.935Z,746.36
2022-08-05T08:24:01.238Z,747.46
2022-08-05T08:24:51.243Z,748.71
2022-08-05T08:26:00.486Z,748.57
2022-08-05T08:26:39.875Z,748.22
2022-08-05T08:27:47.927Z,747.78
2022-08-05T08:28:59.252Z,747.99
2022-08-05T08:30:05.601Z,748.91
2022-08-05T08:30:47.921Z,749.24
2022-08-05T08:31:39.821Z,749.84
2022-08-05T08:32:39.878Z,749.25
2022-08-05T08:33:39.803Z,748.61
2022-08-05T08:34:39.789Z,748.22
2022-08-05T08:35:41.315Z,749.12
2022-08-05T08:36:47.633Z,749.53
2022-08-05T08:37:39.775Z,749.78
2022-08-05T08:38:39.787Z,750.16
2022-08-05T08:39:49.423Z,750.62
2022-08-05T08:40:39.741Z,750.46
2022-08-05T08:41:52.275Z,751.51
2022-08-05T08:42:50.569Z,752.84
2022-08-05T08:45:25.092Z,752.95
2022-08-05T08:45:25.130Z,752.96
2022-08-05T08:45:39.676Z,753.83
2022-08-05T08:46:39.677Z,753.07
2022-08-05T08:48:06.805Z,752.34
2022-08-05T08:49:03.010Z,751.81
2022-08-05T08:50:22.628Z,751.57
2022-08-05T08:52:03.506Z,752.29
2022-08-05T08:52:51.623Z,752.46
2022-08-05T08:53:49.544Z,751.38
2022-08-05T08:54:49.538Z,753.12
2022-08-05T08:56:04.357Z,754.27
2022-08-05T08:56:49.557Z,755.19
2022-08-05T08:57:58.419Z,754.97
2022-08-05T08:58:49.587Z,754.93
2022-08-05T08:59:49.478Z,754.55
2022-08-05T09:00:49.532Z,754.86
2022-08-05T09:01:57.390Z,756.09
2022-08-05T09:02:49.462Z,756.83
2022-08-05T09:03:54.258Z,757.23
2022-08-05T09:05:16.130Z,757.17
2022-08-05T09:06:09.273Z,757.04
2022-08-05T09:06:49.899Z,758.36
2022-08-05T09:07:57.377Z,757.89
2022-08-05T09:08:49.403Z,758.42
2022-08-05T09:09:49.373Z,758.51
2022-08-05T09:10:49.384Z,757.72
2022-08-05T09:11:53.126Z,757.20
2022-08-05T09:12:51.086Z,757.55
2022-08-05T09:14:01.171Z,757.58
2022-08-05T09:14:58.276Z,756.93
2022-08-05T09:15:49.346Z,756.75
2022-08-05T09:16:49.296Z,757.93
2022-08-05T09:17:49.748Z,758.32
2022-08-05T09:18:49.270Z,756.91
2022-08-05T09:20:01.434Z,756.89
2022-08-05T09:20:49.270Z,756.61
2022-08-05T09:22:21.852Z,756.05
2022-08-05T09:22:51.954Z,755.11
2022-08-05T09:23:49.217Z,754.49
2022-08-05T09:24:49.209Z,754.61
2022-08-05T09:26:01.996Z,755.03
2022-08-05T09:26:51.874Z,755.06
2022-08-05T09:28:05.466Z,754.25
2022-08-05T09:28:49.162Z,753.78
2022-08-05T09:29:49.155Z,752.28
2022-08-05T09:30:49.427Z,751.90
2022-08-05T09:32:41.178Z,751.86
2022-08-05T09:32:49.111Z,750.88
2022-08-05T09:33:49.154Z,751.47
2022-08-05T09:34:49.111Z,751.54
2022-08-05T09:35:49.106Z,750.89
2022-08-05T09:36:55.589Z,751.39
2022-08-05T09:38:18.415Z,751.28
2022-08-05T09:38:49.058Z,752.31
2022-08-05T09:39:52.320Z,751.62
2022-08-05T09:40:52.448Z,750.05
2022-08-05T09:41:56.261Z,749.00
2022-08-05T09:42:49.014Z,748.12
2022-08-05T09:43:49.369Z,747.25
2022-08-05T09:44:50.433Z,746.13
2022-08-05T09:46:07.082Z,745.37
2022-08-05T09:46:53.452Z,746.59
2022-08-05T09:47:56.566Z,747.21
2022-08-05T09:49:06.904Z,747.50
2022-08-05T09:50:00.781Z,747.61
2022-08-05T09:50:48.923Z,748.32
2022-08-05T09:51:49.752Z,748.95
2022-08-05T09:52:52.902Z,748.36
2022-08-05T09:53:53.710Z,748.38
2022-08-05T09:54:48.879Z,748.18
2022-08-05T09:55:58.550Z,749.10
2022-08-05T09:56:52.412Z,748.82
2022-08-05T09:57:48.839Z,749.15
2022-08-05T09:58:50.199Z,749.46
2022-08-05T09:59:48.841Z,749.88
2022-08-05T10:00:48.808Z,749.73
2022-08-05T10:01:48.821Z,749.90
2022-08-05T10:02:48.945Z,749.91
2022-08-05T10:03:59.124Z,749.43
2022-08-05T10:04:48.784Z,749.94
2022-08-05T10:05:48.782Z,750.77
2022-08-05T10:06:54.603Z,750.81
2022-08-05T10:08:10.628Z,749.82
2022-08-05T10:08:53.970Z,749.99
2022-08-05T10:09:48.724Z,751.27
2022-08-05T10:10:50.496Z,751.73
2022-08-05T10:11:48.687Z,751.98
2022-08-05T10:12:50.069Z,752.08
2022-08-05T10:13:49.327Z,751.96
2022-08-05T10:14:48.656Z,751.67
2022-08-05T10:15:48.649Z,751.06
2022-08-05T10:16:52.955Z,751.85
2022-08-05T10:17:56.580Z,752.35
2022-08-05T10:18:48.614Z,753.01
2022-08-05T10:20:04.488Z,754.25
2022-08-05T10:20:48.813Z,754.58
2022-08-05T10:21:48.584Z,753.83
2022-08-05T10:22:50.797Z,754.19
2022-08-05T10:23:59.362Z,754.83
2022-08-05T10:24:48.556Z,754.79
2022-08-05T10:25:48.538Z,754.72
2022-08-05T10:26:51.637Z,754.04
2022-08-05T10:28:12.980Z,754.38
2022-08-05T10:28:48.579Z,754.78
2022-08-05T10:30:41.581Z,755.49
2022-08-05T10:32:52.430Z,754.73
2022-08-05T10:32:54.722Z,754.94
2022-08-05T10:33:00.754Z,754.97
2022-08-05T10:33:54.014Z,755.52
2022-08-05T10:34:48.441Z,755.82
2022-08-05T10:35:59.839Z,755.48
2022-08-05T10:36:48.432Z,755.29
2022-08-05T10:37:48.418Z,755.80
2022-08-05T10:38:48.411Z,755.72
2022-08-05T10:39:58.998Z,755.97
2022-08-05T10:40:48.478Z,756.11
2022-08-05T10:41:48.373Z,755.59
2022-08-05T10:42:48.353Z,755.86
2022-08-05T10:43:48.623Z,755.80
2022-08-05T10:44:48.339Z,755.68
2022-08-05T10:45:48.334Z,755.58
2022-08-05T10:46:50.905Z,755.43
2022-08-05T10:47:56.435Z,755.27
2022-08-05T10:48:56.885Z,755.17
2022-08-05T10:49:48.977Z,755.30
2022-08-05T10:50:48.266Z,755.43
2022-08-05T10:52:58.831Z,754.71
2022-08-05T10:54:00.904Z,753.85
2022-08-05T10:54:58.203Z,753.12
2022-08-05T10:56:04.933Z,754.15
2022-08-05T10:56:58.163Z,754.27
2022-08-05T10:57:58.154Z,754.02
2022-08-05T10:58:58.141Z,754.02
2022-08-05T11:00:03.710Z,753.90
2022-08-05T11:01:02.978Z,753.25
2022-08-05T11:02:05.202Z,753.29
2022-08-05T11:02:58.192Z,753.66
2022-08-05T11:03:58.153Z,753.33
2022-08-05T11:04:58.101Z,753.63
2022-08-05T11:05:58.076Z,752.96
2022-08-05T11:06:58.064Z,753.33
2022-08-05T11:08:02.462Z,753.05
2022-08-05T11:08:58.044Z,753.47
2022-08-05T11:10:03.624Z,752.70
2022-08-05T11:11:01.132Z,751.65
2022-08-05T11:11:57.991Z,751.62
2022-08-05T11:12:58.005Z,750.72
2022-08-05T11:13:58.534Z,751.06
2022-08-05T11:15:11.894Z,750.95
2022-08-05T11:16:01.252Z,749.79
2022-08-05T11:17:00.201Z,750.56
2022-08-05T11:18:03.812Z,752.47
2022-08-05T11:18:57.917Z,753.60
2022-08-05T11:20:10.370Z,754.17
2022-08-05T11:20:57.909Z,753.42
2022-08-05T11:21:57.975Z,752.48
2022-08-05T11:23:02.175Z,752.51
2022-08-05T11:24:04.075Z,752.76
2022-08-05T11:25:16.596Z,752.24
2022-08-05T11:26:05.243Z,752.15
2022-08-05T11:26:57.835Z,751.79
2022-08-05T11:28:00.649Z,752.25
2022-08-05T11:28:59.412Z,753.33
2022-08-05T11:29:57.796Z,752.90
2022-08-05T11:30:58.512Z,752.44
2022-08-05T11:32:00.499Z,752.09
2022-08-05T11:32:57.771Z,751.99
2022-08-05T11:33:57.747Z,751.36
2022-08-05T11:34:57.751Z,751.66
2022-08-05T11:36:07.538Z,751.03
2022-08-05T11:36:57.732Z,750.01
2022-08-05T11:38:29.747Z,749.75
2022-08-05T11:38:58.348Z,749.88
2022-08-05T11:40:03.064Z,749.99
2022-08-05T11:41:01.787Z,750.66
2022-08-05T11:42:02.050Z,750.08
2022-08-05T11:42:57.652Z,751.45
2022-08-05T11:44:06.365Z,751.24
2022-08-05T11:44:57.629Z,750.75
2022-08-05T11:46:27.214Z,750.06
2022-08-05T11:47:10.274Z,749.77
2022-08-05T11:47:57.621Z,750.47
2022-08-05T11:48:57.579Z,750.17
2022-08-05T11:49:57.586Z,751.21
2022-08-05T11:50:57.573Z,751.27
2022-08-05T11:51:57.900Z,750.76
2022-08-05T11:52:58.429Z,750.46
2022-08-05T11:53:57.521Z,750.36
2022-08-05T11:54:57.546Z,751.28
2022-08-05T11:55:57.501Z,751.16
2022-08-05T11:56:57.523Z,750.82
2022-08-05T11:58:10.087Z,750.35
2022-08-05T11:58:57.473Z,750.49
2022-08-05T11:59:57.492Z,749.60
2022-08-05T12:00:57.612Z,748.28
2022-08-05T12:01:57.441Z,747.35
2022-08-05T12:02:57.549Z,745.55
2022-08-05T12:03:57.418Z,744.04
2022-08-05T12:04:59.634Z,744.02
2022-08-05T12:05:57.404Z,743.57
2022-08-05T12:06:57.384Z,743.23
2022-08-05T12:08:08.931Z,743.04
2022-08-05T12:08:57.392Z,742.93
2022-08-05T12:09:57.367Z,743.19
2022-08-05T12:10:57.367Z,743.84
2022-08-05T12:11:57.338Z,743.79
2022-08-05T12:13:00.277Z,744.12
2022-08-05T12:13:58.762Z,743.28
2022-08-05T12:14:57.316Z,742.62
2022-08-05T12:15:57.294Z,742.12
2022-08-05T12:16:57.318Z,742.53
2022-08-05T12:18:03.891Z,742.20
2022-08-05T12:18:57.258Z,742.96
2022-08-05T12:20:16.714Z,743.01
2022-08-05T12:20:57.245Z,742.21
2022-08-05T12:21:57.222Z,741.29
2022-08-05T12:22:57.214Z,741.19
2022-08-05T12:23:57.200Z,743.24
2022-08-05T12:24:57.229Z,743.56
2022-08-05T12:25:57.346Z,743.22
2022-08-05T12:26:57.167Z,743.10
2022-08-05T12:27:57.146Z,742.55
2022-08-05T12:28:57.137Z,742.03
2022-08-05T12:29:57.136Z,741.68
2022-08-05T12:30:57.133Z,741.16
2022-08-05T12:31:57.103Z,742.21
2022-08-05T12:32:57.099Z,743.36
2022-08-05T12:33:58.276Z,743.28
2022-08-05T12:34:57.074Z,743.81
2022-08-05T12:35:57.119Z,743.58
2022-08-05T12:36:57.069Z,743.06